sensor_id;sensor_type;location;lat;lon;timestamp;pressure;altitude;pressure_sealevel;temperature;humidity
75208;BME280;63795;55.684;37.864;2023-04-24T00:04:22;99789.63;;;12.70;35.76
75208;BME280;63795;55.684;37.864;2023-04-24T00:09:26;99785.63;;;12.64;36.29
75208;BME280;63795;55.684;37.864;2023-04-24T00:14:26;99790.94;;;12.59;36.06
75208;BME280;63795;55.684;37.864;2023-04-24T00:19:27;99784.53;;;12.51;36.59
75208;BME280;63795;55.684;37.864;2023-04-24T00:24:28;99785.44;;;12.41;36.38
75208;BME280;63795;55.684;37.864;2023-04-24T00:29:29;99783.09;;;12.33;36.42
75208;BME280;63795;55.684;37.864;2023-04-24T00:34:30;99783.56;;;12.28;36.71
75208;BME280;63795;55.684;37.864;2023-04-24T00:39:32;99784.03;;;12.19;36.61
75208;BME280;63795;55.684;37.864;2023-04-24T00:44:33;99791.38;;;12.13;37.02
75208;BME280;63795;55.684;37.864;2023-04-24T00:49:34;99789.47;;;12.00;37.65
75208;BME280;63795;55.684;37.864;2023-04-24T00:54:35;99789.63;;;11.78;42.52
75208;BME280;63795;55.684;37.864;2023-04-24T00:59:36;99789.00;;;11.50;41.47
75208;BME280;63795;55.684;37.864;2023-04-24T01:04:37;99787.44;;;11.42;43.09
75208;BME280;63795;55.684;37.864;2023-04-24T01:09:40;99798.03;;;11.34;40.50
75208;BME280;63795;55.684;37.864;2023-04-24T01:14:42;99791.88;;;11.43;39.87
75208;BME280;63795;55.684;37.864;2023-04-24T01:19:43;99777.66;;;11.43;39.49
75208;BME280;63795;55.684;37.864;2023-04-24T01:24:46;99786.63;;;11.38;39.68
75208;BME280;63795;55.684;37.864;2023-04-24T01:29:46;99780.56;;;11.36;39.79
75208;BME280;63795;55.684;37.864;2023-04-24T01:34:52;99781.78;;;11.35;40.29
75208;BME280;63795;55.684;37.864;2023-04-24T01:39:52;99779.38;;;11.30;39.80
75208;BME280;63795;55.684;37.864;2023-04-24T01:44:53;99782.66;;;11.28;39.73
75208;BME280;63795;55.684;37.864;2023-04-24T01:49:54;99774.53;;;11.23;42.22
75208;BME280;63795;55.684;37.864;2023-04-24T01:54:55;99777.00;;;11.18;39.46
75208;BME280;63795;55.684;37.864;2023-04-24T01:59:56;99775.38;;;11.17;39.34
75208;BME280;63795;55.684;37.864;2023-04-24T02:04:57;99780.66;;;11.14;40.99
75208;BME280;63795;55.684;37.864;2023-04-24T02:09:57;99788.41;;;11.07;40.84
75208;BME280;63795;55.684;37.864;2023-04-24T02:14:58;99779.56;;;10.91;40.72
75208;BME280;63795;55.684;37.864;2023-04-24T02:19:58;99782.44;;;10.84;40.85
75208;BME280;63795;55.684;37.864;2023-04-24T02:24:59;99776.75;;;10.80;40.86
75208;BME280;63795;55.684;37.864;2023-04-24T02:30:00;99778.81;;;10.80;40.91
75208;BME280;63795;55.684;37.864;2023-04-24T02:35:01;99781.22;;;10.81;40.92
75208;BME280;63795;55.684;37.864;2023-04-24T02:40:01;99783.22;;;10.84;42.68
75208;BME280;63795;55.684;37.864;2023-04-24T02:45:02;99794.97;;;10.83;41.51
75208;BME280;63795;55.684;37.864;2023-04-24T02:50:03;99800.69;;;10.72;42.12
75208;BME280;63795;55.684;37.864;2023-04-24T02:55:03;99799.47;;;10.73;43.36
75208;BME280;63795;55.684;37.864;2023-04-24T03:00:05;99805.94;;;10.77;42.72
75208;BME280;63795;55.684;37.864;2023-04-24T03:05:07;99805.50;;;10.82;43.16
75208;BME280;63795;55.684;37.864;2023-04-24T03:10:08;99799.03;;;10.85;44.03
75208;BME280;63795;55.684;37.864;2023-04-24T03:15:08;99804.69;;;10.85;45.71
75208;BME280;63795;55.684;37.864;2023-04-24T03:20:09;99813.25;;;10.71;45.46
75208;BME280;63795;55.684;37.864;2023-04-24T03:25:10;99818.13;;;10.67;46.00
75208;BME280;63795;55.684;37.864;2023-04-24T03:30:10;99812.84;;;10.73;44.67
75208;BME280;63795;55.684;37.864;2023-04-24T03:35:11;99818.47;;;10.87;44.81
75208;BME280;63795;55.684;37.864;2023-04-24T03:40:11;99819.25;;;10.94;45.34
75208;BME280;63795;55.684;37.864;2023-04-24T03:45:12;99824.91;;;11.01;44.79
75208;BME280;63795;55.684;37.864;2023-04-24T03:50:12;99818.38;;;11.11;44.56
75208;BME280;63795;55.684;37.864;2023-04-24T03:55:13;99830.56;;;11.12;44.41
75208;BME280;63795;55.684;37.864;2023-04-24T04:00:14;99832.94;;;11.24;44.07
75208;BME280;63795;55.684;37.864;2023-04-24T04:05:14;99834.88;;;11.38;43.94
75208;BME280;63795;55.684;37.864;2023-04-24T04:10:15;99836.03;;;11.51;43.57
75208;BME280;63795;55.684;37.864;2023-04-24T04:15:17;99835.53;;;11.63;42.77
75208;BME280;63795;55.684;37.864;2023-04-24T04:20:17;99836.66;;;11.83;42.89
75208;BME280;63795;55.684;37.864;2023-04-24T04:25:18;99834.97;;;11.96;42.40
75208;BME280;63795;55.684;37.864;2023-04-24T04:30:19;99832.38;;;12.16;42.21
75208;BME280;63795;55.684;37.864;2023-04-24T04:35:21;99831.41;;;12.33;41.62
75208;BME280;63795;55.684;37.864;2023-04-24T04:40:21;99838.94;;;12.53;41.52
75208;BME280;63795;55.684;37.864;2023-04-24T04:45:22;99843.19;;;12.75;40.72
75208;BME280;63795;55.684;37.864;2023-04-24T04:50:24;99841.75;;;12.98;40.60
75208;BME280;63795;55.684;37.864;2023-04-24T04:55:25;99852.50;;;13.20;40.58
75208;BME280;63795;55.684;37.864;2023-04-24T05:00:26;99851.38;;;13.44;39.47
75208;BME280;63795;55.684;37.864;2023-04-24T05:05:27;99842.97;;;13.64;37.90
75208;BME280;63795;55.684;37.864;2023-04-24T05:10:28;99849.22;;;13.82;38.09
75208;BME280;63795;55.684;37.864;2023-04-24T05:15:28;99857.44;;;14.03;36.51
75208;BME280;63795;55.684;37.864;2023-04-24T05:20:28;99853.91;;;14.22;35.97
75208;BME280;63795;55.684;37.864;2023-04-24T05:25:29;99854.09;;;14.38;36.54
75208;BME280;63795;55.684;37.864;2023-04-24T05:30:30;99847.69;;;14.54;36.49
75208;BME280;63795;55.684;37.864;2023-04-24T05:35:31;99851.03;;;14.72;36.51
75208;BME280;63795;55.684;37.864;2023-04-24T05:40:31;99847.84;;;14.90;36.02
75208;BME280;63795;55.684;37.864;2023-04-24T05:45:32;99850.97;;;14.99;35.21
75208;BME280;63795;55.684;37.864;2023-04-24T05:50:32;99846.19;;;15.12;34.86
75208;BME280;63795;55.684;37.864;2023-04-24T05:55:33;99851.13;;;15.31;35.08
75208;BME280;63795;55.684;37.864;2023-04-24T06:00:34;99852.91;;;15.64;34.98
75208;BME280;63795;55.684;37.864;2023-04-24T06:05:34;99850.13;;;15.96;35.21
75208;BME280;63795;55.684;37.864;2023-04-24T06:10:35;99850.53;;;16.47;35.16
75208;BME280;63795;55.684;37.864;2023-04-24T06:15:36;99846.81;;;17.39;33.98
75208;BME280;63795;55.684;37.864;2023-04-24T06:20:36;99856.38;;;18.40;33.48
75208;BME280;63795;55.684;37.864;2023-04-24T06:25:37;99855.06;;;19.38;32.57
75208;BME280;63795;55.684;37.864;2023-04-24T06:30:38;99864.91;;;20.02;29.99
75208;BME280;63795;55.684;37.864;2023-04-24T06:35:38;99862.19;;;19.99;29.48
75208;BME280;63795;55.684;37.864;2023-04-24T06:40:39;99869.78;;;20.36;28.08
75208;BME280;63795;55.684;37.864;2023-04-24T06:45:40;99859.03;;;20.85;27.95
75208;BME280;63795;55.684;37.864;2023-04-24T06:50:40;99858.97;;;21.34;27.25
75208;BME280;63795;55.684;37.864;2023-04-24T06:55:41;99862.97;;;21.64;26.35
75208;BME280;63795;55.684;37.864;2023-04-24T07:00:43;99862.91;;;22.18;26.12
75208;BME280;63795;55.684;37.864;2023-04-24T07:05:43;99863.59;;;21.95;23.90
75208;BME280;63795;55.684;37.864;2023-04-24T07:10:44;99872.44;;;21.82;24.08
75208;BME280;63795;55.684;37.864;2023-04-24T07:15:45;99864.25;;;21.63;23.55
75208;BME280;63795;55.684;37.864;2023-04-24T07:20:45;99866.81;;;21.88;22.38
75208;BME280;63795;55.684;37.864;2023-04-24T07:25:46;99865.34;;;22.02;23.30
75208;BME280;63795;55.684;37.864;2023-04-24T07:30:47;99876.06;;;22.10;22.44
75208;BME280;63795;55.684;37.864;2023-04-24T07:35:47;99860.69;;;21.95;23.22
75208;BME280;63795;55.684;37.864;2023-04-24T07:40:48;99863.91;;;21.97;21.36
75208;BME280;63795;55.684;37.864;2023-04-24T07:45:52;99867.44;;;21.47;22.39
75208;BME280;63795;55.684;37.864;2023-04-24T07:50:53;99863.84;;;20.79;22.31
75208;BME280;63795;55.684;37.864;2023-04-24T07:55:55;99861.59;;;20.34;22.81
75208;BME280;63795;55.684;37.864;2023-04-24T08:00:56;99861.91;;;20.06;22.14
75208;BME280;63795;55.684;37.864;2023-04-24T08:05:56;99853.78;;;19.83;22.46
75208;BME280;63795;55.684;37.864;2023-04-24T08:10:57;99846.03;;;19.71;22.71
75208;BME280;63795;55.684;37.864;2023-04-24T08:15:57;99853.09;;;19.79;22.77
75208;BME280;63795;55.684;37.864;2023-04-24T08:20:57;99841.25;;;19.77;22.31
75208;BME280;63795;55.684;37.864;2023-04-24T08:26:01;99852.84;;;19.86;22.46
75208;BME280;63795;55.684;37.864;2023-04-24T08:31:02;99843.13;;;20.63;21.77
75208;BME280;63795;55.684;37.864;2023-04-24T08:36:04;99845.50;;;21.58;21.91
75208;BME280;63795;55.684;37.864;2023-04-24T08:41:05;99834.25;;;22.38;21.77
75208;BME280;63795;55.684;37.864;2023-04-24T08:46:06;99828.84;;;22.88;20.03
75208;BME280;63795;55.684;37.864;2023-04-24T08:51:07;99822.72;;;23.56;21.08
75208;BME280;63795;55.684;37.864;2023-04-24T08:56:08;99817.53;;;23.90;18.30
75208;BME280;63795;55.684;37.864;2023-04-24T09:01:09;99818.63;;;23.78;19.68
75208;BME280;63795;55.684;37.864;2023-04-24T09:06:11;99815.41;;;23.23;18.49
75208;BME280;63795;55.684;37.864;2023-04-24T09:11:11;99806.72;;;22.85;19.10
75208;BME280;63795;55.684;37.864;2023-04-24T09:16:13;99803.13;;;23.13;19.19
75208;BME280;63795;55.684;37.864;2023-04-24T09:21:14;99791.34;;;23.55;18.42
75208;BME280;63795;55.684;37.864;2023-04-24T09:26:15;99797.06;;;23.93;18.76
75208;BME280;63795;55.684;37.864;2023-04-24T09:31:17;99797.09;;;24.92;18.87
75208;BME280;63795;55.684;37.864;2023-04-24T09:36:18;99788.44;;;25.58;17.72
75208;BME280;63795;55.684;37.864;2023-04-24T09:41:19;99792.47;;;25.40;16.57
75208;BME280;63795;55.684;37.864;2023-04-24T09:46:20;99792.03;;;25.07;16.72
75208;BME280;63795;55.684;37.864;2023-04-24T09:51:35;99782.47;;;25.41;17.15
75208;BME280;63795;55.684;37.864;2023-04-24T09:56:42;99772.56;;;25.79;16.40
75208;BME280;63795;55.684;37.864;2023-04-24T10:01:42;99779.53;;;25.92;16.61
75208;BME280;63795;55.684;37.864;2023-04-24T10:06:45;99776.38;;;26.22;16.66
75208;BME280;63795;55.684;37.864;2023-04-24T10:11:48;99774.44;;;26.44;15.40
75208;BME280;63795;55.684;37.864;2023-04-24T10:16:50;99760.22;;;25.38;16.27
75208;BME280;63795;55.684;37.864;2023-04-24T10:21:53;99771.00;;;24.57;17.02
75208;BME280;63795;55.684;37.864;2023-04-24T10:26:56;99775.25;;;24.76;16.93
75208;BME280;63795;55.684;37.864;2023-04-24T10:31:57;99756.06;;;24.99;16.19
75208;BME280;63795;55.684;37.864;2023-04-24T10:36:57;99751.47;;;25.58;16.66
75208;BME280;63795;55.684;37.864;2023-04-24T10:41:58;99751.66;;;26.06;15.31
75208;BME280;63795;55.684;37.864;2023-04-24T10:46:59;99758.22;;;26.32;15.36
75208;BME280;63795;55.684;37.864;2023-04-24T10:52:01;99753.59;;;26.15;15.47
75208;BME280;63795;55.684;37.864;2023-04-24T11:02:39;99740.06;;;26.43;14.52
75208;BME280;63795;55.684;37.864;2023-04-24T11:08:15;99729.66;;;25.68;15.39
75208;BME280;63795;55.684;37.864;2023-04-24T11:13:17;99727.00;;;24.38;15.86
75208;BME280;63795;55.684;37.864;2023-04-24T11:18:22;99718.97;;;23.99;16.25
75208;BME280;63795;55.684;37.864;2023-04-24T11:23:23;99720.94;;;24.22;16.20
75208;BME280;63795;55.684;37.864;2023-04-24T11:28:24;99713.53;;;25.93;15.36
75208;BME280;63795;55.684;37.864;2023-04-24T11:33:24;99711.00;;;26.43;15.23
75208;BME280;63795;55.684;37.864;2023-04-24T11:38:26;99714.94;;;26.82;14.92
75208;BME280;63795;55.684;37.864;2023-04-24T11:43:28;99696.78;;;27.09;14.25
75208;BME280;63795;55.684;37.864;2023-04-24T11:48:34;99690.69;;;27.07;13.83
75208;BME280;63795;55.684;37.864;2023-04-24T11:53:36;99683.28;;;26.47;14.15
75208;BME280;63795;55.684;37.864;2023-04-24T11:58:38;99667.28;;;26.74;13.90
75208;BME280;63795;55.684;37.864;2023-04-24T12:03:39;99682.16;;;26.81;13.54
75208;BME280;63795;55.684;37.864;2023-04-24T12:08:46;99658.25;;;27.69;14.11
75208;BME280;63795;55.684;37.864;2023-04-24T12:13:46;99658.25;;;27.53;12.81
75208;BME280;63795;55.684;37.864;2023-04-24T12:18:47;99666.31;;;26.93;13.60
75208;BME280;63795;55.684;37.864;2023-04-24T12:23:48;99659.13;;;26.36;14.11
75208;BME280;63795;55.684;37.864;2023-04-24T12:28:49;99651.56;;;27.25;13.77
75208;BME280;63795;55.684;37.864;2023-04-24T12:33:50;99640.75;;;27.58;13.30
75208;BME280;63795;55.684;37.864;2023-04-24T12:38:52;99636.00;;;27.61;12.83
75208;BME280;63795;55.684;37.864;2023-04-24T12:43:53;99649.50;;;27.47;13.85
75208;BME280;63795;55.684;37.864;2023-04-24T12:48:55;99636.81;;;27.61;13.78
75208;BME280;63795;55.684;37.864;2023-04-24T12:53:56;99645.00;;;27.85;13.11
75208;BME280;63795;55.684;37.864;2023-04-24T12:58:56;99621.69;;;27.68;13.26
75208;BME280;63795;55.684;37.864;2023-04-24T13:03:57;99633.88;;;27.56;13.92
75208;BME280;63795;55.684;37.864;2023-04-24T13:08:57;99634.06;;;27.08;13.37
75208;BME280;63795;55.684;37.864;2023-04-24T13:13:58;99611.56;;;26.33;14.18
75208;BME280;63795;55.684;37.864;2023-04-24T13:18:58;99611.03;;;25.30;14.80
75208;BME280;63795;55.684;37.864;2023-04-24T13:23:59;99612.91;;;25.07;14.83
75208;BME280;63795;55.684;37.864;2023-04-24T13:28:59;99614.84;;;24.44;14.84
75208;BME280;63795;55.684;37.864;2023-04-24T13:34:02;99602.50;;;24.09;15.34
75208;BME280;63795;55.684;37.864;2023-04-24T13:39:03;99598.31;;;23.96;15.59
75208;BME280;63795;55.684;37.864;2023-04-24T13:44:05;99597.06;;;23.47;16.29
75208;BME280;63795;55.684;37.864;2023-04-24T13:49:06;99597.47;;;23.26;16.12
75208;BME280;63795;55.684;37.864;2023-04-24T13:54:07;99589.06;;;23.28;16.18
75208;BME280;63795;55.684;37.864;2023-04-24T13:59:07;99590.09;;;23.10;16.58
75208;BME280;63795;55.684;37.864;2023-04-24T14:04:08;99567.16;;;23.07;16.85
75208;BME280;63795;55.684;37.864;2023-04-24T14:09:09;99571.16;;;22.95;16.81
75208;BME280;63795;55.684;37.864;2023-04-24T14:14:10;99565.25;;;22.60;16.84
75208;BME280;63795;55.684;37.864;2023-04-24T14:19:10;99569.53;;;22.64;16.95
75208;BME280;63795;55.684;37.864;2023-04-24T14:24:11;99567.47;;;22.41;16.95
75208;BME280;63795;55.684;37.864;2023-04-24T14:29:11;99557.44;;;22.13;17.12
75208;BME280;63795;55.684;37.864;2023-04-24T14:34:13;99564.19;;;22.10;17.11
75208;BME280;63795;55.684;37.864;2023-04-24T14:39:14;99570.88;;;21.92;17.65
75208;BME280;63795;55.684;37.864;2023-04-24T14:44:14;99559.16;;;21.96;17.83
75208;BME280;63795;55.684;37.864;2023-04-24T14:49:15;99560.38;;;21.80;17.91
75208;BME280;63795;55.684;37.864;2023-04-24T14:54:15;99562.50;;;21.71;18.11
75208;BME280;63795;55.684;37.864;2023-04-24T14:59:16;99550.53;;;21.63;17.96
75208;BME280;63795;55.684;37.864;2023-04-24T15:04:16;99545.59;;;21.55;18.08
75208;BME280;63795;55.684;37.864;2023-04-24T15:09:17;99545.47;;;21.49;18.24
75208;BME280;63795;55.684;37.864;2023-04-24T15:14:18;99550.59;;;21.54;18.38
75208;BME280;63795;55.684;37.864;2023-04-24T15:19:18;99556.69;;;21.80;18.12
75208;BME280;63795;55.684;37.864;2023-04-24T15:24:19;99555.34;;;21.66;18.33
75208;BME280;63795;55.684;37.864;2023-04-24T15:29:19;99547.25;;;21.47;18.69
75208;BME280;63795;55.684;37.864;2023-04-24T15:34:20;99551.84;;;21.21;19.03
75208;BME280;63795;55.684;37.864;2023-04-24T15:39:22;99549.16;;;21.17;18.83
75208;BME280;63795;55.684;37.864;2023-04-24T15:44:24;99547.28;;;21.05;19.20
75208;BME280;63795;55.684;37.864;2023-04-24T15:49:24;99542.16;;;21.00;19.01
75208;BME280;63795;55.684;37.864;2023-04-24T15:54:25;99549.38;;;20.95;19.14
75208;BME280;63795;55.684;37.864;2023-04-24T15:59:26;99544.16;;;20.67;19.58
75208;BME280;63795;55.684;37.864;2023-04-24T16:04:28;99550.75;;;20.49;19.74
75208;BME280;63795;55.684;37.864;2023-04-24T16:09:28;99546.09;;;20.43;20.03
75208;BME280;63795;55.684;37.864;2023-04-24T16:14:29;99539.09;;;20.25;20.47
75208;BME280;63795;55.684;37.864;2023-04-24T16:19:30;99549.78;;;20.16;20.43
75208;BME280;63795;55.684;37.864;2023-04-24T16:24:31;99555.22;;;20.05;20.51
75208;BME280;63795;55.684;37.864;2023-04-24T16:29:31;99553.28;;;19.93;20.82
75208;BME280;63795;55.684;37.864;2023-04-24T16:34:33;99552.97;;;19.82;20.68
75208;BME280;63795;55.684;37.864;2023-04-24T16:39:34;99556.78;;;19.79;20.87
75208;BME280;63795;55.684;37.864;2023-04-24T16:44:34;99559.16;;;19.71;21.13
75208;BME280;63795;55.684;37.864;2023-04-24T16:49:35;99550.50;;;19.62;21.51
75208;BME280;63795;55.684;37.864;2023-04-24T16:54:36;99557.50;;;19.52;21.61
75208;BME280;63795;55.684;37.864;2023-04-24T16:59:37;99562.75;;;19.44;21.44
75208;BME280;63795;55.684;37.864;2023-04-24T17:04:38;99568.75;;;19.28;21.68
75208;BME280;63795;55.684;37.864;2023-04-24T17:09:38;99568.06;;;19.15;21.70
75208;BME280;63795;55.684;37.864;2023-04-24T17:14:39;99573.44;;;19.04;22.19
75208;BME280;63795;55.684;37.864;2023-04-24T17:19:39;99582.00;;;18.95;21.78
75208;BME280;63795;55.684;37.864;2023-04-24T17:24:40;99576.88;;;18.90;21.95
75208;BME280;63795;55.684;37.864;2023-04-24T17:29:40;99581.84;;;18.90;21.87
75208;BME280;63795;55.684;37.864;2023-04-24T17:34:41;99578.41;;;18.82;21.98
75208;BME280;63795;55.684;37.864;2023-04-24T17:39:41;99582.84;;;18.74;22.06
75208;BME280;63795;55.684;37.864;2023-04-24T17:44:42;99584.44;;;18.75;22.13
75208;BME280;63795;55.684;37.864;2023-04-24T17:49:42;99578.97;;;18.68;21.94
75208;BME280;63795;55.684;37.864;2023-04-24T17:54:43;99590.72;;;18.83;21.98
75208;BME280;63795;55.684;37.864;2023-04-24T17:59:43;99590.56;;;18.86;22.58
75208;BME280;63795;55.684;37.864;2023-04-24T18:04:44;99591.19;;;18.81;22.08
75208;BME280;63795;55.684;37.864;2023-04-24T18:09:44;99603.50;;;18.82;22.44
75208;BME280;63795;55.684;37.864;2023-04-24T18:14:45;99598.19;;;18.80;22.29
75208;BME280;63795;55.684;37.864;2023-04-24T18:19:46;99596.59;;;18.79;22.32
75208;BME280;63795;55.684;37.864;2023-04-24T18:24:46;99605.47;;;18.72;22.36
75208;BME280;63795;55.684;37.864;2023-04-24T18:29:47;99594.09;;;18.59;22.31
75208;BME280;63795;55.684;37.864;2023-04-24T18:34:48;99607.22;;;18.48;22.49
75208;BME280;63795;55.684;37.864;2023-04-24T18:39:48;99606.31;;;18.38;22.78
75208;BME280;63795;55.684;37.864;2023-04-24T18:44:49;99598.44;;;18.30;22.59
75208;BME280;63795;55.684;37.864;2023-04-24T18:49:50;99605.59;;;18.25;22.66
75208;BME280;63795;55.684;37.864;2023-04-24T18:54:51;99607.09;;;18.17;22.70
75208;BME280;63795;55.684;37.864;2023-04-24T18:59:51;99603.31;;;18.08;23.10
75208;BME280;63795;55.684;37.864;2023-04-24T19:04:52;99603.59;;;18.01;23.01
75208;BME280;63795;55.684;37.864;2023-04-24T19:09:52;99605.78;;;17.97;23.28
75208;BME280;63795;55.684;37.864;2023-04-24T19:14:54;99612.16;;;17.66;24.06
75208;BME280;63795;55.684;37.864;2023-04-24T19:19:57;99616.75;;;17.39;24.88
75208;BME280;63795;55.684;37.864;2023-04-24T19:24:58;99612.03;;;17.20;24.79
75208;BME280;63795;55.684;37.864;2023-04-24T19:29:58;99614.22;;;17.03;24.73
75208;BME280;63795;55.684;37.864;2023-04-24T19:34:59;99619.72;;;17.10;24.50
75208;BME280;63795;55.684;37.864;2023-04-24T19:40:00;99607.78;;;16.99;24.62
75208;BME280;63795;55.684;37.864;2023-04-24T19:45:01;99607.31;;;16.88;24.98
75208;BME280;63795;55.684;37.864;2023-04-24T19:50:01;99610.50;;;16.77;25.05
75208;BME280;63795;55.684;37.864;2023-04-24T19:55:02;99613.81;;;16.76;25.40
75208;BME280;63795;55.684;37.864;2023-04-24T20:00:03;99608.44;;;16.78;24.72
75208;BME280;63795;55.684;37.864;2023-04-24T20:05:04;99604.09;;;16.73;25.13
75208;BME280;63795;55.684;37.864;2023-04-24T20:10:05;99620.00;;;16.46;26.81
75208;BME280;63795;55.684;37.864;2023-04-24T20:15:07;99618.13;;;16.10;26.72
75208;BME280;63795;55.684;37.864;2023-04-24T20:20:08;99614.19;;;16.21;26.21
75208;BME280;63795;55.684;37.864;2023-04-24T20:25:09;99615.59;;;16.29;25.77
75208;BME280;63795;55.684;37.864;2023-04-24T20:30:12;99623.25;;;16.32;25.87
75208;BME280;63795;55.684;37.864;2023-04-24T20:35:12;99626.13;;;16.32;26.27
75208;BME280;63795;55.684;37.864;2023-04-24T20:40:13;99608.81;;;16.23;25.95
75208;BME280;63795;55.684;37.864;2023-04-24T20:45:13;99616.69;;;16.18;26.92
75208;BME280;63795;55.684;37.864;2023-04-24T20:50:14;99622.09;;;16.00;27.68
75208;BME280;63795;55.684;37.864;2023-04-24T20:55:15;99617.84;;;15.76;27.15
75208;BME280;63795;55.684;37.864;2023-04-24T21:00:16;99616.50;;;15.81;27.86
75208;BME280;63795;55.684;37.864;2023-04-24T21:05:17;99611.19;;;15.79;26.88
75208;BME280;63795;55.684;37.864;2023-04-24T21:10:17;99611.94;;;15.67;28.71
75208;BME280;63795;55.684;37.864;2023-04-24T21:15:19;99610.34;;;15.50;29.08
75208;BME280;63795;55.684;37.864;2023-04-24T21:20:19;99614.69;;;15.39;29.65
75208;BME280;63795;55.684;37.864;2023-04-24T21:25:20;99618.34;;;15.23;29.65
75208;BME280;63795;55.684;37.864;2023-04-24T21:30:20;99617.03;;;15.08;30.96
75208;BME280;63795;55.684;37.864;2023-04-24T21:35:21;99616.69;;;15.06;29.78
75208;BME280;63795;55.684;37.864;2023-04-24T21:40:22;99610.06;;;14.93;30.46
75208;BME280;63795;55.684;37.864;2023-04-24T21:45:22;99619.69;;;14.83;30.22
75208;BME280;63795;55.684;37.864;2023-04-24T21:50:22;99616.16;;;14.75;30.65
75208;BME280;63795;55.684;37.864;2023-04-24T21:55:23;99615.38;;;14.75;32.85
75208;BME280;63795;55.684;37.864;2023-04-24T22:00:24;99616.47;;;14.61;32.47
75208;BME280;63795;55.684;37.864;2023-04-24T22:05:25;99606.16;;;14.47;31.65
75208;BME280;63795;55.684;37.864;2023-04-24T22:10:26;99601.91;;;14.56;32.54
75208;BME280;63795;55.684;37.864;2023-04-24T22:15:26;99598.03;;;14.66;31.95
75208;BME280;63795;55.684;37.864;2023-04-24T22:20:28;99592.19;;;14.73;32.14
75208;BME280;63795;55.684;37.864;2023-04-24T22:25:29;99595.75;;;14.77;31.36
75208;BME280;63795;55.684;37.864;2023-04-24T22:30:29;99590.03;;;14.77;31.98
75208;BME280;63795;55.684;37.864;2023-04-24T22:35:30;99589.16;;;14.80;31.93
75208;BME280;63795;55.684;37.864;2023-04-24T22:40:30;99590.59;;;14.88;31.86
75208;BME280;63795;55.684;37.864;2023-04-24T22:45:31;99597.47;;;14.90;33.23
75208;BME280;63795;55.684;37.864;2023-04-24T22:50:32;99597.19;;;14.85;32.11
75208;BME280;63795;55.684;37.864;2023-04-24T22:55:32;99604.38;;;14.73;34.63
75208;BME280;63795;55.684;37.864;2023-04-24T23:00:34;99609.75;;;14.52;35.31
75208;BME280;63795;55.684;37.864;2023-04-24T23:05:35;99616.34;;;14.25;36.33
75208;BME280;63795;55.684;37.864;2023-04-24T23:10:35;99623.78;;;14.00;36.20
75208;BME280;63795;55.684;37.864;2023-04-24T23:15:36;99612.22;;;13.64;37.91
75208;BME280;63795;55.684;37.864;2023-04-24T23:20:38;99620.44;;;13.35;38.40
75208;BME280;63795;55.684;37.864;2023-04-24T23:25:39;99607.78;;;13.13;39.43
75208;BME280;63795;55.684;37.864;2023-04-24T23:30:39;99618.34;;;13.13;39.51
75208;BME280;63795;55.684;37.864;2023-04-24T23:35:40;99613.22;;;13.04;39.93
75208;BME280;63795;55.684;37.864;2023-04-24T23:40:40;99616.94;;;12.98;40.98
75208;BME280;63795;55.684;37.864;2023-04-24T23:45:41;99612.53;;;12.93;40.58
75208;BME280;63795;55.684;37.864;2023-04-24T23:50:41;99608.66;;;12.80;41.18
75208;BME280;63795;55.684;37.864;2023-04-24T23:55:42;99609.19;;;12.71;42.14
